Date,TemperatureHighF,TemperatureAvgF,TemperatureLowF,DewpointHighF,DewpointAvgF,DewpointLowF,HumidityHigh,HumidityAvg,HumidityLow,PressureMaxIn,PressureMinIn,WindSpeedMaxMPH,WindSpeedAvgMPH,GustSpeedMaxMPH,PrecipitationSumIn
2014-1-1,48,34,26,26,20,18,78,59,32,0.00,0.00,5,0,5,0.00
2014-1-2,42,37,30,40,32,15,97,81,42,0.00,0.00,17,1,17,0.31
2014-1-3,36,27,19,16,4,-2,53,36,28,0.00,0.00,19,4,19,0.00
2014-1-4,41,28,14,16,9,5,68,47,29,0.00,0.00,10,1,10,0.00
2014-1-5,40,36,34,40,31,16,98,81,47,0.00,0.00,6,0,6,0.63
2014-1-6,44,35,12,42,20,-14,98,60,29,0.00,0.00,15,4,15,0.20
2014-1-7,26,16,7,-3,-10,-19,45,30,26,0.00,0.00,11,3,11,0.00
2014-1-8,42,27,9,12,5,-8,62,39,26,0.00,0.00,7,1,7,0.00
2014-1-9,50,34,23,21,14,9,65,47,24,0.00,0.00,5,0,6,0.00
2014-1-10,40,38,35,39,33,19,98,85,46,0.00,0.00,4,0,4,0.59
2014-1-11,54,46,39,53,45,38,98,98,98,0.00,0.00,12,0,12,1.30
2014-1-12,58,43,32,45,30,21,98,68,25,0.00,0.00,13,1,13,0.00
2014-1-13,58,43,29,39,29,24,86,60,32,0.00,0.00,14,1,14,0.71
2014-1-14,56,46,33,54,39,27,98,80,36,0.00,0.00,9,0,9,0.71
2014-1-15,56,39,28,38,26,18,86,63,35,0.00,0.00,15,1,15,0.71
2014-1-16,45,35,28,25,14,9,69,43,28,0.00,0.00,8,1,8,0.00
2014-1-17,51,35,24,23,17,14,75,51,28,0.00,0.00,9,1,9,0.00
2014-1-18,39,31,26,19,10,2,72,43,29,0.00,0.00,14,2,14,0.00
2014-1-19,53,36,24,21,15,11,60,43,28,0.00,0.00,13,2,13,0.00
2014-1-20,64,43,26,26,18,12,72,42,18,0.00,0.00,15,1,15,0.00
2014-1-21,45,33,26,22,18,8,68,53,41,0.00,0.00,11,2,11,0.00
2014-1-22,31,24,18,7,1,-3,45,36,25,0.00,0.00,12,2,12,0.00
2014-1-23,25,19,16,8,3,-8,55,49,30,0.00,0.00,12,0,12,0.00
2014-1-24,22,15,11,-7,-11,-13,32,30,27,0.00,0.00,5,2,5,0.00